Terminal Aerodrome Forecast
Issued by NWS Los Angeles, CA

Home | Current Version | Previous Version | Text Only | Print | Product List | Glossary On
Versions: 1 2 3 4 5 6 7 8 9 10 11 12 13 14 15
365
FTUS46 KLOX 241854 AAB
TAFSMX
TAF AMD
KSMX 241854Z 2419/2518 35015KT P6SM SCT200
     FM250200 35008KT P6SM SKC WS010/04025KT
     FM250900 VRB03KT P6SM SKC
     FM251200 12005KT P6SM BKN250=

USA.gov is the U.S. government's official web portal to all federal, state and local government web resources and services.